createdAt,value
2023-02-02T00:00:39.602Z,26.53
2023-02-02T00:01:41.407Z,26.28
2023-02-02T00:02:43.820Z,29.95
2023-02-02T00:03:45.753Z,28.09
2023-02-02T00:04:47.508Z,30.19
2023-02-02T00:05:49.309Z,27.89
2023-02-02T00:06:51.226Z,27.56
2023-02-02T00:07:53.146Z,29.26
2023-02-02T00:08:55.515Z,28.43
2023-02-02T00:09:57.334Z,27.76
2023-02-02T00:10:59.445Z,30.51
2023-02-02T00:12:01.262Z,22.91
2023-02-02T00:13:03.096Z,27.61
2023-02-02T00:14:04.892Z,25.55
2023-02-02T00:15:06.688Z,27.41
2023-02-02T00:16:09.317Z,25.21
2023-02-02T00:17:11.116Z,25.93
2023-02-02T00:18:12.961Z,28.37
2023-02-02T00:19:14.761Z,26.30
2023-02-02T00:20:16.669Z,29.35
2023-02-02T00:21:18.458Z,25.93
2023-02-02T00:22:20.269Z,29.01
2023-02-02T00:23:22.135Z,26.94
2023-02-02T00:24:24.054Z,26.65
2023-02-02T00:25:26.063Z,29.71
2023-02-02T00:26:28.286Z,25.14
2023-02-02T00:27:30.040Z,29.62
2023-02-02T00:28:31.891Z,29.43
2023-02-02T00:29:33.693Z,27.90
2023-02-02T00:30:35.610Z,27.00
2023-02-02T00:31:37.419Z,32.42
2023-02-02T00:32:39.298Z,27.07
2023-02-02T00:33:41.145Z,31.41
2023-02-02T00:34:42.946Z,30.24
2023-02-02T00:35:44.738Z,27.33
2023-02-02T00:36:46.649Z,24.57
2023-02-02T00:37:48.463Z,28.75
2023-02-02T00:38:50.307Z,27.64
2023-02-02T00:39:52.707Z,27.07
2023-02-02T00:40:54.816Z,26.04
2023-02-02T00:41:56.620Z,24.43
2023-02-02T00:42:58.415Z,28.25
2023-02-02T00:44:00.391Z,25.74
2023-02-02T00:45:02.784Z,25.07
2023-02-02T00:46:04.780Z,25.34
2023-02-02T00:47:06.596Z,27.44
2023-02-02T00:48:08.400Z,23.81
2023-02-02T00:49:10.259Z,26.98
2023-02-02T00:50:12.767Z,23.77
2023-02-02T00:51:14.564Z,22.57
2023-02-02T00:52:16.366Z,26.49
2023-02-02T00:53:18.156Z,27.12
2023-02-02T00:54:20.008Z,23.04
2023-02-02T00:55:21.876Z,28.00
2023-02-02T00:56:23.908Z,26.41
2023-02-02T00:57:25.708Z,25.41
2023-02-02T00:58:27.513Z,23.85
2023-02-02T00:59:29.345Z,27.63
2023-02-02T01:00:31.131Z,25.40
2023-02-02T01:01:32.929Z,27.76
2023-02-02T01:02:34.740Z,26.00
2023-02-02T01:03:36.538Z,25.61
2023-02-02T01:04:38.376Z,25.96
2023-02-02T01:05:40.190Z,26.50
2023-02-02T01:06:42.293Z,25.55
2023-02-02T01:07:44.192Z,32.06
2023-02-02T01:08:46.003Z,27.47
2023-02-02T01:09:47.952Z,28.19
2023-02-02T01:10:49.954Z,27.57
2023-02-02T01:11:51.751Z,26.70
2023-02-02T01:12:53.547Z,22.70
2023-02-02T01:13:55.347Z,24.41
2023-02-02T01:14:57.203Z,23.07
2023-02-02T01:15:58.998Z,27.49
2023-02-02T01:17:00.917Z,24.75
2023-02-02T01:18:02.706Z,23.85
2023-02-02T01:19:04.489Z,24.93
2023-02-02T01:20:06.645Z,24.80
2023-02-02T01:21:08.443Z,27.35
2023-02-02T01:22:10.241Z,29.77
2023-02-02T01:23:12.045Z,25.38
2023-02-02T01:24:15.653Z,25.85
2023-02-02T01:25:17.580Z,26.49
2023-02-02T01:26:19.536Z,25.95
2023-02-02T01:27:21.305Z,24.44
2023-02-02T01:28:23.093Z,28.45
2023-02-02T01:29:24.989Z,30.72
2023-02-02T01:30:26.841Z,28.28
2023-02-02T01:31:28.697Z,28.91
2023-02-02T01:32:30.447Z,29.99
2023-02-02T01:33:32.243Z,23.77
2023-02-02T01:34:34.040Z,26.74
2023-02-02T01:35:35.872Z,25.73
2023-02-02T01:36:37.786Z,27.67
2023-02-02T01:37:39.579Z,27.30
2023-02-02T01:38:41.375Z,26.59
2023-02-02T01:39:43.174Z,24.32
2023-02-02T01:40:45.225Z,25.59
2023-02-02T01:41:47.019Z,23.32
2023-02-02T01:42:48.814Z,24.82
2023-02-02T01:43:50.599Z,27.96
2023-02-02T01:44:52.409Z,25.07
2023-02-02T01:45:54.299Z,24.98
2023-02-02T01:46:56.351Z,27.91
2023-02-02T01:47:58.153Z,27.30
2023-02-02T01:48:59.960Z,24.74
2023-02-02T01:50:01.761Z,23.41
2023-02-02T01:51:03.642Z,25.07
2023-02-02T01:52:05.392Z,26.45
2023-02-02T01:53:07.199Z,23.89
2023-02-02T01:54:09.006Z,26.94
2023-02-02T01:55:10.797Z,26.26
2023-02-02T01:56:12.943Z,24.48
2023-02-02T01:57:14.762Z,24.96
2023-02-02T01:58:16.866Z,24.30
2023-02-02T01:59:18.676Z,22.43
2023-02-02T02:00:20.464Z,24.43
2023-02-02T02:01:22.381Z,23.98
2023-02-02T02:02:24.240Z,24.09
2023-02-02T02:03:26.004Z,24.07
2023-02-02T02:04:27.795Z,23.69
2023-02-02T02:05:29.611Z,25.58
2023-02-02T02:06:31.567Z,25.03
2023-02-02T02:07:33.359Z,24.64
2023-02-02T02:08:35.159Z,22.92
2023-02-02T02:09:36.964Z,22.36
2023-02-02T02:10:38.767Z,23.44
2023-02-02T02:11:40.613Z,23.96
2023-02-02T02:12:42.411Z,23.60
2023-02-02T02:13:44.208Z,22.45
2023-02-02T02:14:46.011Z,23.99
2023-02-02T02:15:47.816Z,23.99
2023-02-02T02:16:50.735Z,19.21
2023-02-02T02:17:52.531Z,22.75
2023-02-02T02:18:54.400Z,22.92
2023-02-02T02:19:56.199Z,21.85
2023-02-02T02:20:57.991Z,21.51
2023-02-02T02:21:59.823Z,21.61
2023-02-02T02:23:01.615Z,24.51
2023-02-02T02:24:03.500Z,21.27
2023-02-02T02:25:05.303Z,22.76
2023-02-02T02:26:07.702Z,21.11
2023-02-02T02:27:09.570Z,21.51
2023-02-02T02:28:11.370Z,21.43
2023-02-02T02:29:13.173Z,22.69
2023-02-02T02:30:14.987Z,21.87
2023-02-02T02:31:16.833Z,19.79
2023-02-02T02:32:18.740Z,21.94
2023-02-02T02:33:20.535Z,24.15
2023-02-02T02:34:22.327Z,20.49
2023-02-02T02:35:24.488Z,19.61
2023-02-02T02:36:26.450Z,20.47
2023-02-02T02:37:28.303Z,24.69
2023-02-02T02:38:30.108Z,22.35
2023-02-02T02:39:31.894Z,22.77
2023-02-02T02:40:33.799Z,22.09
2023-02-02T02:41:35.602Z,23.19
2023-02-02T02:42:37.535Z,23.89
2023-02-02T02:43:39.348Z,20.52
2023-02-02T02:44:41.140Z,21.91
2023-02-02T02:45:42.934Z,22.57
2023-02-02T02:46:44.844Z,23.85
2023-02-02T02:47:46.685Z,24.62
2023-02-02T02:48:48.583Z,26.35
2023-02-02T02:49:50.384Z,22.43
2023-02-02T02:50:52.297Z,22.71
2023-02-02T02:51:54.082Z,24.14
2023-02-02T02:52:55.934Z,25.29
2023-02-02T02:53:57.727Z,22.33
2023-02-02T02:54:59.538Z,23.49
2023-02-02T02:56:01.353Z,23.03
2023-02-02T02:57:03.143Z,23.95
2023-02-02T02:58:05.074Z,22.27
2023-02-02T02:59:06.865Z,21.25
2023-02-02T03:00:09.070Z,21.05
2023-02-02T03:01:10.856Z,22.53
2023-02-02T03:02:12.659Z,25.13
2023-02-02T03:03:14.666Z,25.86
2023-02-02T03:04:16.468Z,24.96
2023-02-02T03:05:18.269Z,25.34
2023-02-02T03:06:20.377Z,24.99
2023-02-02T03:07:22.167Z,24.61
2023-02-02T03:08:24.006Z,20.07
2023-02-02T03:09:25.802Z,24.99
2023-02-02T03:10:27.601Z,22.53
2023-02-02T03:11:29.417Z,26.71
2023-02-02T03:12:31.199Z,24.78
2023-02-02T03:13:33.112Z,22.55
2023-02-02T03:14:34.901Z,26.85
2023-02-02T03:15:37.346Z,22.54
2023-02-02T03:16:39.319Z,22.60
2023-02-02T03:17:41.133Z,21.28
2023-02-02T03:18:42.966Z,23.74
2023-02-02T03:19:44.773Z,22.96
2023-02-02T03:20:46.673Z,22.33
2023-02-02T03:21:48.483Z,23.50
2023-02-02T03:22:50.291Z,23.91
2023-02-02T03:23:52.128Z,21.79
2023-02-02T03:24:53.933Z,26.48
2023-02-02T03:25:55.744Z,23.19
2023-02-02T03:26:57.733Z,24.09
2023-02-02T03:27:59.536Z,23.54
2023-02-02T03:29:01.399Z,23.17
2023-02-02T03:30:03.194Z,27.55
2023-02-02T03:31:05.125Z,27.17
2023-02-02T03:32:07.028Z,23.36
2023-02-02T03:33:09.407Z,25.90
2023-02-02T03:34:11.295Z,25.69
2023-02-02T03:35:13.689Z,23.23
2023-02-02T03:36:15.797Z,27.17
2023-02-02T03:37:17.599Z,24.67
2023-02-02T03:38:19.411Z,25.85
2023-02-02T03:39:21.245Z,27.63
2023-02-02T03:40:23.243Z,26.24
2023-02-02T03:41:25.049Z,26.29
2023-02-02T03:42:26.866Z,27.49
2023-02-02T03:43:28.656Z,26.03
2023-02-02T03:44:30.719Z,25.06
2023-02-02T03:45:32.528Z,27.81
2023-02-02T03:46:34.464Z,26.60
2023-02-02T03:47:36.219Z,27.35
2023-02-02T03:48:38.034Z,25.27
2023-02-02T03:49:39.874Z,25.71
2023-02-02T03:50:42.374Z,28.02
2023-02-02T03:51:44.174Z,27.63
2023-02-02T03:52:45.967Z,24.91
2023-02-02T03:53:48.000Z,27.13
2023-02-02T03:54:49.942Z,29.37
2023-02-02T03:55:51.735Z,28.95
2023-02-02T03:56:53.840Z,24.21
2023-02-02T03:57:55.628Z,28.03
2023-02-02T03:58:57.444Z,26.44
2023-02-02T03:59:59.292Z,26.81
2023-02-02T04:01:01.745Z,28.05
2023-02-02T04:02:03.558Z,28.53
2023-02-02T04:03:05.497Z,29.15
2023-02-02T04:04:07.265Z,25.90
2023-02-02T04:05:09.209Z,26.43
2023-02-02T04:06:12.445Z,26.17
2023-02-02T04:07:14.251Z,28.62
2023-02-02T04:08:16.045Z,29.96
2023-02-02T04:09:17.871Z,28.37
2023-02-02T04:10:19.707Z,26.74
2023-02-02T04:11:21.523Z,24.76
2023-02-02T04:12:23.317Z,27.87
2023-02-02T04:13:27.943Z,27.77
2023-02-02T04:14:29.791Z,26.59
2023-02-02T04:15:31.707Z,23.87
2023-02-02T04:16:33.592Z,28.79
2023-02-02T04:17:35.438Z,27.32
2023-02-02T04:18:37.218Z,28.73
2023-02-02T04:19:39.021Z,27.24
2023-02-02T04:20:40.968Z,28.70
2023-02-02T04:21:42.756Z,29.08
2023-02-02T04:22:44.561Z,30.31
2023-02-02T04:23:46.367Z,27.49
2023-02-02T04:24:48.169Z,30.35
2023-02-02T04:25:50.475Z,32.25
2023-02-02T04:26:52.677Z,29.21
2023-02-02T04:27:55.081Z,29.94
2023-02-02T04:28:56.905Z,30.75
2023-02-02T04:29:58.702Z,28.44
2023-02-02T04:31:00.598Z,27.84
2023-02-02T04:32:02.385Z,30.01
2023-02-02T04:33:04.185Z,29.96
2023-02-02T04:34:05.983Z,29.13
2023-02-02T04:35:07.784Z,36.12
2023-02-02T04:36:10.154Z,31.49
2023-02-02T04:37:11.990Z,30.84
2023-02-02T04:38:13.774Z,29.07
2023-02-02T04:39:15.573Z,29.51
2023-02-02T04:40:17.678Z,31.12
2023-02-02T04:41:19.522Z,32.57
2023-02-02T04:42:21.330Z,31.57
2023-02-02T04:43:23.143Z,25.06
2023-02-02T04:44:24.937Z,28.16
2023-02-02T04:45:26.981Z,28.67
2023-02-02T04:46:29.138Z,33.46
2023-02-02T04:47:30.935Z,31.68
2023-02-02T04:48:32.727Z,34.15
2023-02-02T04:49:34.530Z,35.10
2023-02-02T04:50:36.338Z,31.78
2023-02-02T04:51:38.193Z,32.09
2023-02-02T04:52:39.991Z,31.23
2023-02-02T04:53:41.800Z,32.38
2023-02-02T04:54:43.597Z,31.46
2023-02-02T04:55:45.425Z,30.54
2023-02-02T04:56:47.248Z,28.50
2023-02-02T04:57:49.072Z,32.37
2023-02-02T04:58:50.856Z,29.47
2023-02-02T04:59:52.669Z,32.51
2023-02-02T05:00:54.482Z,31.58
2023-02-02T05:01:56.372Z,31.23
2023-02-02T05:02:58.166Z,32.96
2023-02-02T05:03:59.964Z,25.82
2023-02-02T05:05:01.765Z,27.15
2023-02-02T05:06:03.675Z,33.16
2023-02-02T05:07:05.635Z,38.36
2023-02-02T05:08:07.755Z,44.61
2023-02-02T05:09:09.543Z,47.17
2023-02-02T05:10:11.948Z,36.67
2023-02-02T05:11:13.744Z,31.06
2023-02-02T05:12:15.704Z,31.44
2023-02-02T05:13:17.505Z,29.09
2023-02-02T05:14:19.313Z,27.96
2023-02-02T05:15:21.104Z,27.36
2023-02-02T05:16:23.038Z,29.56
2023-02-02T05:17:24.897Z,26.79
2023-02-02T05:18:26.701Z,31.58
2023-02-02T05:19:28.548Z,35.27
2023-02-02T05:20:30.345Z,52.80
2023-02-02T05:21:32.141Z,49.65
2023-02-02T05:22:34.000Z,38.91
2023-02-02T05:23:35.801Z,37.87
2023-02-02T05:24:37.600Z,30.27
2023-02-02T05:25:39.396Z,33.89
2023-02-02T05:26:41.233Z,34.63
2023-02-02T05:27:43.047Z,37.97
2023-02-02T05:28:44.849Z,30.54
2023-02-02T05:29:46.638Z,28.81
2023-02-02T05:30:48.582Z,27.61
2023-02-02T05:31:50.374Z,25.08
2023-02-02T05:32:52.218Z,26.47
2023-02-02T05:33:54.002Z,26.51
2023-02-02T05:34:55.808Z,26.83
2023-02-02T05:35:57.596Z,25.14
2023-02-02T05:36:59.527Z,27.47
2023-02-02T05:38:01.445Z,25.36
2023-02-02T05:39:03.247Z,28.25
2023-02-02T05:40:05.155Z,23.01
2023-02-02T05:41:06.958Z,24.52
2023-02-02T05:42:08.761Z,26.29
2023-02-02T05:43:10.623Z,23.79
2023-02-02T05:44:12.405Z,23.83
2023-02-02T05:45:14.212Z,22.66
2023-02-02T05:46:16.053Z,21.41
2023-02-02T05:47:17.810Z,20.67
2023-02-02T05:48:21.275Z,19.61
2023-02-02T05:49:23.090Z,23.73
2023-02-02T05:50:25.224Z,21.13
2023-02-02T05:51:27.039Z,21.61
2023-02-02T05:52:28.837Z,20.89
2023-02-02T05:53:30.682Z,22.87
2023-02-02T05:54:32.487Z,23.43
2023-02-02T05:55:34.303Z,23.90
2023-02-02T05:56:36.390Z,21.39
2023-02-02T05:57:38.187Z,24.19
2023-02-02T05:58:40.066Z,24.86
2023-02-02T05:59:41.865Z,23.76
2023-02-02T06:00:43.671Z,21.97
2023-02-02T06:01:45.462Z,24.41
2023-02-02T06:02:47.298Z,23.88
2023-02-02T06:03:49.205Z,25.85
2023-02-02T06:04:51.024Z,23.83
2023-02-02T06:05:52.829Z,21.91
2023-02-02T06:06:54.748Z,26.28
2023-02-02T06:07:56.555Z,24.87
2023-02-02T06:08:58.401Z,23.72
2023-02-02T06:10:00.194Z,25.40
2023-02-02T06:11:01.993Z,25.31
2023-02-02T06:12:03.804Z,22.99
2023-02-02T06:13:05.607Z,21.61
2023-02-02T06:14:07.455Z,21.95
2023-02-02T06:15:09.257Z,21.51
2023-02-02T06:16:12.096Z,22.45
2023-02-02T06:17:13.863Z,22.03
2023-02-02T06:18:15.676Z,23.52
2023-02-02T06:19:17.521Z,23.40
2023-02-02T06:20:21.395Z,22.06
2023-02-02T06:21:22.923Z,20.86
2023-02-02T06:22:24.771Z,23.15
2023-02-02T06:23:27.665Z,18.11
2023-02-02T06:24:29.954Z,25.37
2023-02-02T06:25:33.028Z,24.14
2023-02-02T06:26:35.014Z,24.08
2023-02-02T06:27:36.778Z,22.16
2023-02-02T06:28:38.595Z,20.63
2023-02-02T06:29:40.903Z,22.34
2023-02-02T06:30:44.195Z,23.66
2023-02-02T06:31:46.446Z,23.24
2023-02-02T06:32:52.509Z,22.35
2023-02-02T06:33:56.435Z,24.30
2023-02-02T06:35:00.939Z,23.33
2023-02-02T06:36:04.197Z,21.80
2023-02-02T06:37:06.020Z,22.41
2023-02-02T06:38:08.958Z,20.70
2023-02-02T06:39:13.750Z,22.51
2023-02-02T06:40:16.106Z,22.22
2023-02-02T06:41:18.144Z,19.87
2023-02-02T06:42:21.972Z,22.83
2023-02-02T06:43:23.610Z,22.28
2023-02-02T06:44:25.480Z,21.84
2023-02-02T06:45:27.447Z,21.41
2023-02-02T06:46:29.504Z,18.10
2023-02-02T06:47:32.736Z,24.56
2023-02-02T06:48:35.982Z,21.38
2023-02-02T06:49:39.818Z,22.37
2023-02-02T06:50:41.939Z,21.20
2023-02-02T06:51:45.886Z,22.39
2023-02-02T06:52:50.380Z,23.08
2023-02-02T06:53:52.894Z,24.54
2023-02-02T06:54:54.747Z,22.62
2023-02-02T06:55:57.763Z,25.49
2023-02-02T06:57:03.971Z,23.93
2023-02-02T06:58:06.725Z,26.49
2023-02-02T06:59:10.804Z,24.91
2023-02-02T07:00:14.432Z,26.84
2023-02-02T07:01:17.114Z,27.38
2023-02-02T07:02:19.603Z,25.44
2023-02-02T07:03:21.844Z,25.59
2023-02-02T07:04:24.821Z,24.11
2023-02-02T07:05:30.413Z,25.55
2023-02-02T07:06:32.996Z,25.33
2023-02-02T07:07:35.497Z,27.07
2023-02-02T07:08:41.679Z,26.10
2023-02-02T07:09:43.553Z,25.19
2023-02-02T07:11:08.458Z,26.71
2023-02-02T07:11:50.924Z,25.57
2023-02-02T07:12:52.723Z,26.01
2023-02-02T07:13:54.518Z,23.61
2023-02-02T07:14:56.316Z,27.46
2023-02-02T07:15:58.177Z,25.38
2023-02-02T07:17:00.104Z,25.35
2023-02-02T07:18:01.875Z,30.09
2023-02-02T07:19:03.674Z,30.89
2023-02-02T07:20:05.579Z,29.29
2023-02-02T07:21:07.378Z,29.58
2023-02-02T07:22:09.270Z,29.32
2023-02-02T07:23:11.073Z,27.94
2023-02-02T07:24:12.869Z,29.29
2023-02-02T07:25:14.685Z,32.41
2023-02-02T07:26:16.492Z,30.96
2023-02-02T07:27:18.318Z,32.03
2023-02-02T07:28:20.120Z,31.72
2023-02-02T07:29:21.925Z,32.42
2023-02-02T07:30:23.854Z,30.91
2023-02-02T07:31:25.688Z,33.43
2023-02-02T07:32:27.566Z,36.37
2023-02-02T07:33:29.383Z,42.79
2023-02-02T07:34:31.228Z,27.90
2023-02-02T07:35:32.993Z,29.69
2023-02-02T07:36:35.132Z,29.54
2023-02-02T07:37:39.098Z,33.68
2023-02-02T07:38:40.595Z,35.38
2023-02-02T07:39:42.381Z,31.77
2023-02-02T07:40:44.188Z,32.87
2023-02-02T07:41:45.992Z,35.76
2023-02-02T07:42:48.974Z,35.85
2023-02-02T07:43:50.814Z,37.71
2023-02-02T07:44:52.601Z,35.08
2023-02-02T07:45:54.403Z,33.20
2023-02-02T07:46:56.293Z,33.78
2023-02-02T07:47:58.172Z,30.31
2023-02-02T07:48:59.968Z,33.27
2023-02-02T07:50:02.113Z,33.23
2023-02-02T07:51:03.928Z,31.18
2023-02-02T07:52:05.732Z,30.13
2023-02-02T07:53:07.622Z,30.86
2023-02-02T07:54:09.546Z,29.81
2023-02-02T07:55:14.847Z,30.95
2023-02-02T07:56:15.067Z,29.56
2023-02-02T07:57:16.875Z,30.92
2023-02-02T07:58:18.747Z,27.78
2023-02-02T07:59:20.561Z,27.25
2023-02-02T08:00:22.612Z,30.03
2023-02-02T08:01:25.118Z,27.81
2023-02-02T08:02:26.908Z,29.69
2023-02-02T08:03:28.722Z,29.51
2023-02-02T08:04:30.534Z,27.92
2023-02-02T08:05:32.335Z,27.06
2023-02-02T08:06:34.133Z,28.74
2023-02-02T08:07:37.050Z,26.57
2023-02-02T08:08:38.956Z,28.49
2023-02-02T08:09:40.776Z,28.94
2023-02-02T08:10:42.773Z,32.97
2023-02-02T08:11:44.585Z,27.86
2023-02-02T08:12:46.400Z,27.99
2023-02-02T08:13:48.251Z,30.66
2023-02-02T08:14:50.057Z,28.88
2023-02-02T08:15:52.996Z,29.19
2023-02-02T08:16:55.506Z,27.87
2023-02-02T08:17:57.326Z,28.05
2023-02-02T08:18:59.237Z,29.67
2023-02-02T08:20:01.023Z,28.43
2023-02-02T08:21:02.852Z,28.85
2023-02-02T08:22:04.645Z,29.81
2023-02-02T08:23:06.464Z,29.67
2023-02-02T08:24:08.397Z,28.44
2023-02-02T08:25:10.188Z,29.37
2023-02-02T08:26:12.020Z,25.46
2023-02-02T08:27:13.826Z,27.22
2023-02-02T08:28:15.641Z,28.29
2023-02-02T08:29:17.514Z,28.49
2023-02-02T08:30:19.321Z,28.79
2023-02-02T08:31:21.239Z,30.06
2023-02-02T08:32:23.012Z,28.18
2023-02-02T08:33:24.800Z,32.59
2023-02-02T08:34:26.652Z,29.33
2023-02-02T08:35:28.459Z,25.11
2023-02-02T08:36:30.373Z,28.87
2023-02-02T08:37:32.181Z,26.65
2023-02-02T08:38:33.981Z,25.33
2023-02-02T08:39:35.825Z,25.13
2023-02-02T08:40:37.651Z,33.77
2023-02-02T08:41:39.471Z,31.39
2023-02-02T08:42:41.270Z,29.32
2023-02-02T08:43:43.071Z,26.36
2023-02-02T08:46:01.565Z,27.93
2023-02-02T08:46:02.151Z,25.45
2023-02-02T08:46:54.051Z,26.48
2023-02-02T08:48:10.955Z,27.95
2023-02-02T08:49:00.182Z,29.46
2023-02-02T08:50:02.579Z,29.47
2023-02-02T08:51:04.575Z,29.72
2023-02-02T08:52:06.364Z,28.87
2023-02-02T08:53:09.415Z,28.12
2023-02-02T08:54:11.220Z,27.23
2023-02-02T08:55:13.126Z,29.73
2023-02-02T08:56:15.833Z,30.26
2023-02-02T08:57:17.828Z,27.50
2023-02-02T08:58:19.634Z,27.04
2023-02-02T08:59:21.635Z,28.27
2023-02-02T09:00:23.894Z,24.86
2023-02-02T09:01:26.409Z,24.54
2023-02-02T09:02:29.005Z,26.87
2023-02-02T09:03:30.996Z,24.85
2023-02-02T09:04:33.531Z,27.09
2023-02-02T09:05:35.382Z,27.55
2023-02-02T09:06:37.691Z,29.61
2023-02-02T09:07:39.518Z,26.67
2023-02-02T09:08:41.567Z,27.21
2023-02-02T09:09:43.501Z,27.11
2023-02-02T09:10:45.501Z,28.33
2023-02-02T09:11:47.307Z,26.91
2023-02-02T09:12:49.322Z,25.53
2023-02-02T09:13:52.321Z,27.36
2023-02-02T09:14:54.389Z,23.65
2023-02-02T09:15:56.220Z,28.02
2023-02-02T09:17:01.042Z,26.68
2023-02-02T09:18:03.079Z,26.57
2023-02-02T09:19:04.870Z,25.59
2023-02-02T09:20:07.279Z,22.62
2023-02-02T09:21:09.704Z,26.83
2023-02-02T09:22:11.713Z,24.16
2023-02-02T09:23:13.530Z,24.73
2023-02-02T09:24:16.054Z,24.18
2023-02-02T09:25:17.864Z,26.46
2023-02-02T09:26:19.832Z,22.99
2023-02-02T09:27:21.668Z,24.81
2023-02-02T09:28:23.661Z,28.43
2023-02-02T09:29:25.474Z,21.93
2023-02-02T09:30:28.719Z,23.22
2023-02-02T09:31:30.618Z,24.22
2023-02-02T09:32:32.492Z,23.83
2023-02-02T09:33:34.308Z,23.53
2023-02-02T09:34:36.110Z,24.82
2023-02-02T09:35:39.826Z,22.05
2023-02-02T09:36:41.685Z,23.68
2023-02-02T09:37:43.475Z,22.19
2023-02-02T09:38:45.294Z,21.83
2023-02-02T09:39:47.084Z,22.13
2023-02-02T09:40:49.599Z,23.25
2023-02-02T09:41:51.498Z,19.72
2023-02-02T09:42:53.300Z,22.53
2023-02-02T09:43:55.118Z,20.65
2023-02-02T09:44:56.912Z,20.47
2023-02-02T09:45:58.738Z,21.43
2023-02-02T09:47:00.702Z,19.41
2023-02-02T09:48:02.519Z,20.61
2023-02-02T09:49:04.306Z,17.30
2023-02-02T09:50:06.630Z,20.12
2023-02-02T09:51:08.428Z,19.42
2023-02-02T09:52:10.262Z,20.39
2023-02-02T09:53:12.102Z,20.21
2023-02-02T09:54:13.912Z,20.30
2023-02-02T09:55:15.703Z,19.77
2023-02-02T09:56:17.635Z,19.92
2023-02-02T09:57:20.960Z,19.89
2023-02-02T09:58:22.783Z,16.06
2023-02-02T09:59:24.802Z,19.07
2023-02-02T10:00:27.099Z,19.85
2023-02-02T10:01:28.911Z,18.66
2023-02-02T10:02:30.754Z,18.82
2023-02-02T10:03:32.566Z,20.57
2023-02-02T10:04:34.378Z,19.09
2023-02-02T10:05:36.182Z,21.14
2023-02-02T10:06:37.978Z,18.21
2023-02-02T10:07:39.825Z,21.82
2023-02-02T10:08:41.627Z,18.55
2023-02-02T10:09:43.466Z,19.11
2023-02-02T10:10:45.377Z,20.56
2023-02-02T10:11:47.212Z,19.99
2023-02-02T10:12:49.070Z,18.20
2023-02-02T10:13:50.875Z,19.84
2023-02-02T10:14:52.720Z,19.67
2023-02-02T10:15:54.623Z,20.03
2023-02-02T10:16:56.505Z,19.82
2023-02-02T10:17:58.341Z,18.91
2023-02-02T10:19:00.146Z,19.73
2023-02-02T10:20:02.033Z,20.24
2023-02-02T10:21:03.867Z,18.15
2023-02-02T10:22:05.796Z,19.01
2023-02-02T10:23:07.655Z,18.03
2023-02-02T10:24:09.452Z,15.89
2023-02-02T10:25:11.260Z,14.43
2023-02-02T10:26:13.077Z,18.45
2023-02-02T10:27:14.867Z,16.82
2023-02-02T10:28:16.787Z,21.41
2023-02-02T10:29:18.577Z,19.37
2023-02-02T10:30:20.778Z,17.59
2023-02-02T10:31:22.676Z,16.40
2023-02-02T10:32:24.471Z,18.57
2023-02-02T10:33:26.336Z,20.81
2023-02-02T10:34:28.133Z,19.70
2023-02-02T10:35:29.960Z,17.40
2023-02-02T10:36:32.279Z,16.41
2023-02-02T10:37:34.084Z,16.23
2023-02-02T10:38:37.867Z,17.32
2023-02-02T10:39:39.565Z,16.94
2023-02-02T10:40:41.351Z,18.84
2023-02-02T10:41:43.175Z,16.84
2023-02-02T10:42:45.030Z,16.29
2023-02-02T10:43:46.947Z,17.53
2023-02-02T10:44:48.723Z,16.43
2023-02-02T10:45:50.638Z,16.34
2023-02-02T10:46:52.779Z,17.24
2023-02-02T10:47:54.623Z,16.01
2023-02-02T10:48:56.598Z,18.13
2023-02-02T10:49:58.446Z,17.15
2023-02-02T10:51:00.255Z,17.59
2023-02-02T10:52:02.060Z,15.99
2023-02-02T10:53:03.893Z,17.94
2023-02-02T10:54:05.892Z,18.78
2023-02-02T10:55:07.786Z,18.88
2023-02-02T10:56:10.375Z,21.41
2023-02-02T10:57:12.173Z,18.35
2023-02-02T10:58:14.000Z,16.27
2023-02-02T10:59:15.955Z,16.09
2023-02-02T11:00:20.173Z,18.41
2023-02-02T11:01:23.131Z,19.25
2023-02-02T11:02:24.998Z,19.28
2023-02-02T11:03:26.773Z,16.25
2023-02-02T11:04:28.623Z,17.00
2023-02-02T11:05:30.486Z,20.96
2023-02-02T11:06:32.361Z,21.17
2023-02-02T11:07:34.191Z,19.27
2023-02-02T11:08:36.014Z,22.23
2023-02-02T11:09:37.879Z,20.26
2023-02-02T11:10:39.843Z,21.21
2023-02-02T11:11:41.654Z,19.18
2023-02-02T11:12:43.746Z,18.81
2023-02-02T11:13:45.547Z,17.33
2023-02-02T11:14:47.461Z,19.15
2023-02-02T11:15:49.307Z,19.31
2023-02-02T11:16:51.118Z,18.62
2023-02-02T11:17:52.853Z,19.09
2023-02-02T11:18:54.666Z,16.73
2023-02-02T11:19:57.592Z,20.97
2023-02-02T11:20:59.421Z,20.95
2023-02-02T11:22:01.216Z,19.46
2023-02-02T11:23:03.027Z,22.43
2023-02-02T11:24:05.841Z,23.53
2023-02-02T11:25:07.711Z,22.70
2023-02-02T11:26:09.825Z,27.53
2023-02-02T11:27:11.641Z,26.41
2023-02-02T11:28:13.452Z,24.82
2023-02-02T11:29:15.243Z,21.98
2023-02-02T11:30:17.118Z,21.97
2023-02-02T11:31:19.085Z,16.03
2023-02-02T11:32:20.856Z,14.11
2023-02-02T11:33:22.663Z,14.46
2023-02-02T11:34:24.460Z,21.26
2023-02-02T11:35:26.319Z,13.21
2023-02-02T11:36:28.205Z,13.76
2023-02-02T11:37:30.020Z,16.31
2023-02-02T11:38:31.805Z,16.21
2023-02-02T11:39:33.615Z,16.42
2023-02-02T11:40:35.464Z,20.16
2023-02-02T11:41:37.273Z,16.38
2023-02-02T11:42:39.062Z,16.19
2023-02-02T11:43:40.866Z,16.84
2023-02-02T11:44:42.663Z,15.06
2023-02-02T11:45:44.555Z,15.06
2023-02-02T11:46:46.684Z,15.22
2023-02-02T11:47:48.466Z,16.25
2023-02-02T11:48:50.274Z,15.67
2023-02-02T11:49:52.072Z,16.28
2023-02-02T11:50:55.389Z,14.36
2023-02-02T11:51:57.131Z,16.64
2023-02-02T11:52:58.931Z,23.01
2023-02-02T11:54:00.759Z,23.72
2023-02-02T11:55:02.577Z,26.40
2023-02-02T11:56:04.443Z,30.49
2023-02-02T11:57:06.245Z,32.15
2023-02-02T11:58:08.051Z,34.69
2023-02-02T11:59:09.857Z,33.36
2023-02-02T12:00:11.864Z,37.94
2023-02-02T12:01:13.780Z,40.36
2023-02-02T12:02:15.681Z,34.74
2023-02-02T12:03:17.446Z,29.95
2023-02-02T12:04:19.283Z,32.67
2023-02-02T12:05:21.119Z,33.61
2023-02-02T12:06:23.287Z,44.39
2023-02-02T12:07:25.084Z,33.62
2023-02-02T12:08:27.444Z,27.81
2023-02-02T12:09:29.266Z,24.86
2023-02-02T12:10:34.005Z,24.49
2023-02-02T12:11:35.048Z,21.06
2023-02-02T12:12:36.827Z,23.46
2023-02-02T12:13:38.641Z,21.63
2023-02-02T12:14:40.457Z,18.21
2023-02-02T12:15:42.265Z,18.06
2023-02-02T12:16:44.190Z,16.51
2023-02-02T12:17:45.945Z,16.76
2023-02-02T12:18:47.750Z,17.28
2023-02-02T12:19:49.566Z,20.95
2023-02-02T12:20:51.412Z,18.32
2023-02-02T12:21:53.231Z,18.98
2023-02-02T12:22:55.054Z,16.71
2023-02-02T12:23:57.065Z,19.42
2023-02-02T12:24:58.871Z,16.46
2023-02-02T12:26:01.255Z,20.84
2023-02-02T12:27:03.124Z,18.19
2023-02-02T12:28:04.931Z,17.49
2023-02-02T12:29:06.742Z,20.56
2023-02-02T12:30:08.644Z,23.27
2023-02-02T12:31:10.613Z,19.19
2023-02-02T12:32:12.607Z,17.47
2023-02-02T12:33:14.401Z,16.56
2023-02-02T12:34:16.220Z,16.54
2023-02-02T12:35:18.031Z,19.45
2023-02-02T12:36:19.864Z,17.77
2023-02-02T12:37:23.069Z,17.20
2023-02-02T12:38:24.828Z,16.92
2023-02-02T12:39:26.629Z,14.44
2023-02-02T12:40:28.603Z,13.54
2023-02-02T12:41:30.567Z,16.15
2023-02-02T12:42:32.403Z,15.23
2023-02-02T12:43:34.306Z,14.65
2023-02-02T12:44:36.108Z,16.31
2023-02-02T12:45:37.966Z,15.57
2023-02-02T12:46:39.718Z,15.89
2023-02-02T12:47:41.659Z,15.32
2023-02-02T12:48:43.464Z,15.40
2023-02-02T12:49:45.297Z,13.24
2023-02-02T12:50:47.195Z,12.05
2023-02-02T12:51:49.004Z,13.39
2023-02-02T12:52:50.851Z,11.53
2023-02-02T12:54:33.015Z,13.27
2023-02-02T12:54:56.892Z,12.62
2023-02-02T12:55:59.411Z,13.18
2023-02-02T12:57:01.530Z,11.50
2023-02-02T12:58:04.617Z,11.54
2023-02-02T12:59:10.132Z,12.83
2023-02-02T13:00:13.366Z,12.26
2023-02-02T13:01:15.318Z,13.93
2023-02-02T13:02:17.184Z,11.41
2023-02-02T13:03:20.946Z,10.95
2023-02-02T13:04:22.764Z,10.35
2023-02-02T13:05:24.583Z,10.93
2023-02-02T13:06:26.491Z,10.72
2023-02-02T13:07:28.305Z,12.66
2023-02-02T13:08:30.735Z,9.89
2023-02-02T13:09:32.553Z,12.99
2023-02-02T13:10:34.583Z,11.15
2023-02-02T13:11:36.419Z,12.91
2023-02-02T13:12:38.227Z,13.36
2023-02-02T13:13:41.190Z,13.33
2023-02-02T13:14:43.017Z,12.12
2023-02-02T13:15:44.892Z,14.20
2023-02-02T13:16:46.846Z,16.34
2023-02-02T13:17:48.792Z,18.29
2023-02-02T13:18:50.704Z,15.53